メインページ
METAR-TAF:

METAR-TAF

空港 :

セントジョンズ, ニューファンドランド・ラブラドール州, カナダ

セントジョンズ国際空港

緯度: 47-37N, 経度: 052-44W, 海抜: 134m

現時点の気象観測

当レポートは1時間38分前の21:00(UTC)に作成
の風 9kt
気温 18°C
湿度 64%
気圧 1017 hPa
視程: 24.1km
高度2800ftの雲はほとんどない
高度20000ftの雲はほとんどない

METAR: CYYT 262100Z 18009KT 15SM FEW028 FEW200 18/11 A3004 RMK CU1CI1 SLP177 DENSITY ALT 800FT

時間: 20:08 (22:38 UTC)

予報

当レポートは4時間56分前の17:42(UTC)に作成
予報は26日の 18時(UTC)から 27日の 18時(UTC)まで有効
南東の風 6kt
視程: 10km
高度3000ftの雲はほとんどない
高度20000ftの雲は散在している
26日の 19時(UTC)から 26日の 21時(UTC)まで徐々に
南/南東の風 10kt
27日の 0000時(UTC)から
南/南西の風 10kt
視程: 10km
晴天
27日の 0300時(UTC)から
西/南西の風 12kt
視程: 10km
晴天
27日の 07時(UTC)から 27日の 09時(UTC)まで徐々に
西/南西の風 9kt

TAF: CYYT 261742Z 2618/2718 13006KT P6SM FEW030 SCT200 BECMG 2619/2621 16010KT FM270000 20010KT P6SM SKC FM270300 24012KT P6SM SKC BECMG 2707/2709 25009KT RMK NXT FCST BY 270000Z

4,000以上の空港の気象観測と天気予報(METAR報とTAF報)

利用可能な観測所は地図上に黄色い丸と赤い丸で示す。

丸の上にカーソルを重ねると観測所名を参照できる。

次にクリックすると気象観測と天気予報を参照できる。

マップの切り替え:黒色「×」印の緑ボタンをクリックして拡大、「-」印の緑ボタンをクリックして縮小、緑色の三角印をクリックして隣りの地図に切り替え


METAR-TAF: